sensor_id;sensor_type;location;lat;lon;timestamp;temperature;humidity
18191;DHT22;47004;51.366;12.348;2023-12-20T00:02:00;4.80;99.90
18191;DHT22;47004;51.366;12.348;2023-12-20T00:04:03;4.80;99.90
18191;DHT22;47004;51.366;12.348;2023-12-20T00:06:05;4.80;99.90
18191;DHT22;47004;51.366;12.348;2023-12-20T00:08:07;4.80;99.90
18191;DHT22;47004;51.366;12.348;2023-12-20T00:10:09;4.80;99.90
18191;DHT22;47004;51.366;12.348;2023-12-20T00:12:10;4.80;99.90
18191;DHT22;47004;51.366;12.348;2023-12-20T00:14:13;4.80;99.90
18191;DHT22;47004;51.366;12.348;2023-12-20T00:16:15;4.80;99.90
18191;DHT22;47004;51.366;12.348;2023-12-20T00:18:17;4.80;99.90
18191;DHT22;47004;51.366;12.348;2023-12-20T00:20:19;4.80;99.90
18191;DHT22;47004;51.366;12.348;2023-12-20T00:22:21;4.80;99.90
18191;DHT22;47004;51.366;12.348;2023-12-20T00:24:23;4.80;99.90
18191;DHT22;47004;51.366;12.348;2023-12-20T00:26:25;4.70;99.90
18191;DHT22;47004;51.366;12.348;2023-12-20T00:28:28;4.80;99.90
18191;DHT22;47004;51.366;12.348;2023-12-20T00:30:32;4.80;99.90
18191;DHT22;47004;51.366;12.348;2023-12-20T00:32:35;4.70;99.90
18191;DHT22;47004;51.366;12.348;2023-12-20T00:34:36;4.70;99.90
18191;DHT22;47004;51.366;12.348;2023-12-20T00:36:38;4.80;99.90
18191;DHT22;47004;51.366;12.348;2023-12-20T00:38:40;4.70;99.90
18191;DHT22;47004;51.366;12.348;2023-12-20T00:40:41;4.70;99.90
18191;DHT22;47004;51.366;12.348;2023-12-20T00:42:43;4.70;99.90
18191;DHT22;47004;51.366;12.348;2023-12-20T00:44:47;4.70;99.90
18191;DHT22;47004;51.366;12.348;2023-12-20T00:46:52;4.70;99.90
18191;DHT22;47004;51.366;12.348;2023-12-20T00:48:54;4.70;99.90
18191;DHT22;47004;51.366;12.348;2023-12-20T00:50:56;4.70;99.90
18191;DHT22;47004;51.366;12.348;2023-12-20T00:52:58;4.60;99.90
18191;DHT22;47004;51.366;12.348;2023-12-20T00:55:00;4.70;99.90
18191;DHT22;47004;51.366;12.348;2023-12-20T00:57:02;4.70;99.90
18191;DHT22;47004;51.366;12.348;2023-12-20T00:59:04;4.70;99.90
18191;DHT22;47004;51.366;12.348;2023-12-20T01:01:06;4.70;99.90
18191;DHT22;47004;51.366;12.348;2023-12-20T01:03:09;4.70;99.90
18191;DHT22;47004;51.366;12.348;2023-12-20T01:05:10;4.70;99.90
18191;DHT22;47004;51.366;12.348;2023-12-20T01:07:12;4.70;99.90
18191;DHT22;47004;51.366;12.348;2023-12-20T01:09:14;4.70;99.90
18191;DHT22;47004;51.366;12.348;2023-12-20T01:11:15;4.70;99.90
18191;DHT22;47004;51.366;12.348;2023-12-20T01:13:17;4.70;99.90
18191;DHT22;47004;51.366;12.348;2023-12-20T01:15:19;4.60;99.90
18191;DHT22;47004;51.366;12.348;2023-12-20T01:17:21;4.60;99.90
18191;DHT22;47004;51.366;12.348;2023-12-20T01:19:24;4.70;99.90
18191;DHT22;47004;51.366;12.348;2023-12-20T01:21:25;4.70;99.90
18191;DHT22;47004;51.366;12.348;2023-12-20T01:23:27;4.70;99.90
18191;DHT22;47004;51.366;12.348;2023-12-20T01:25:29;4.70;99.90
18191;DHT22;47004;51.366;12.348;2023-12-20T01:27:31;4.60;99.90
18191;DHT22;47004;51.366;12.348;2023-12-20T01:29:32;4.70;99.90
18191;DHT22;47004;51.366;12.348;2023-12-20T01:31:34;4.70;99.90
18191;DHT22;47004;51.366;12.348;2023-12-20T01:33:36;4.70;99.90
18191;DHT22;47004;51.366;12.348;2023-12-20T01:35:39;4.60;99.90
18191;DHT22;47004;51.366;12.348;2023-12-20T01:37:41;4.60;99.90
18191;DHT22;47004;51.366;12.348;2023-12-20T01:39:43;4.70;99.90
18191;DHT22;47004;51.366;12.348;2023-12-20T01:41:45;4.60;99.90
18191;DHT22;47004;51.366;12.348;2023-12-20T01:43:47;4.60;99.90
18191;DHT22;47004;51.366;12.348;2023-12-20T01:45:49;4.60;99.90
18191;DHT22;47004;51.366;12.348;2023-12-20T01:47:52;4.60;99.90
18191;DHT22;47004;51.366;12.348;2023-12-20T01:49:53;4.60;99.90
18191;DHT22;47004;51.366;12.348;2023-12-20T01:51:58;4.60;99.90
18191;DHT22;47004;51.366;12.348;2023-12-20T01:54:00;4.60;99.90
18191;DHT22;47004;51.366;12.348;2023-12-20T01:56:04;4.60;99.90
18191;DHT22;47004;51.366;12.348;2023-12-20T01:58:05;4.60;99.90
18191;DHT22;47004;51.366;12.348;2023-12-20T02:00:08;4.60;99.90
18191;DHT22;47004;51.366;12.348;2023-12-20T02:02:12;4.60;99.90
18191;DHT22;47004;51.366;12.348;2023-12-20T02:04:14;4.60;99.90
18191;DHT22;47004;51.366;12.348;2023-12-20T02:06:16;4.60;99.90
18191;DHT22;47004;51.366;12.348;2023-12-20T02:08:21;4.60;99.90
18191;DHT22;47004;51.366;12.348;2023-12-20T02:10:23;4.60;99.90
18191;DHT22;47004;51.366;12.348;2023-12-20T02:12:24;4.60;99.90
18191;DHT22;47004;51.366;12.348;2023-12-20T02:14:29;4.60;99.90
18191;DHT22;47004;51.366;12.348;2023-12-20T02:16:30;4.60;99.90
18191;DHT22;47004;51.366;12.348;2023-12-20T02:18:32;4.60;99.90
18191;DHT22;47004;51.366;12.348;2023-12-20T02:20:34;4.60;99.90
18191;DHT22;47004;51.366;12.348;2023-12-20T02:22:36;4.60;99.90
18191;DHT22;47004;51.366;12.348;2023-12-20T02:24:39;4.60;99.90
18191;DHT22;47004;51.366;12.348;2023-12-20T02:26:41;4.60;99.90
18191;DHT22;47004;51.366;12.348;2023-12-20T02:28:43;4.60;99.90
18191;DHT22;47004;51.366;12.348;2023-12-20T02:30:45;4.60;99.90
18191;DHT22;47004;51.366;12.348;2023-12-20T02:32:46;4.60;99.90
18191;DHT22;47004;51.366;12.348;2023-12-20T02:34:48;4.60;99.90
18191;DHT22;47004;51.366;12.348;2023-12-20T02:36:50;4.60;99.90
18191;DHT22;47004;51.366;12.348;2023-12-20T02:38:53;4.60;99.90
18191;DHT22;47004;51.366;12.348;2023-12-20T02:40:54;4.60;99.90
18191;DHT22;47004;51.366;12.348;2023-12-20T02:42:56;4.60;99.90
18191;DHT22;47004;51.366;12.348;2023-12-20T02:44:58;4.60;99.90
18191;DHT22;47004;51.366;12.348;2023-12-20T02:47:00;4.60;99.90
18191;DHT22;47004;51.366;12.348;2023-12-20T02:49:02;4.60;99.90
18191;DHT22;47004;51.366;12.348;2023-12-20T02:51:04;4.60;99.90
18191;DHT22;47004;51.366;12.348;2023-12-20T02:53:06;4.60;99.90
18191;DHT22;47004;51.366;12.348;2023-12-20T02:55:12;4.60;99.90
18191;DHT22;47004;51.366;12.348;2023-12-20T02:57:14;4.60;99.90
18191;DHT22;47004;51.366;12.348;2023-12-20T02:59:17;4.60;99.90
18191;DHT22;47004;51.366;12.348;2023-12-20T03:01:19;4.60;99.90
18191;DHT22;47004;51.366;12.348;2023-12-20T03:03:20;4.60;99.90
18191;DHT22;47004;51.366;12.348;2023-12-20T03:05:22;4.60;99.90
18191;DHT22;47004;51.366;12.348;2023-12-20T03:07:24;4.60;99.90
18191;DHT22;47004;51.366;12.348;2023-12-20T03:09:26;4.60;99.90
18191;DHT22;47004;51.366;12.348;2023-12-20T03:11:30;4.60;99.90
18191;DHT22;47004;51.366;12.348;2023-12-20T03:13:32;4.60;99.90
18191;DHT22;47004;51.366;12.348;2023-12-20T03:15:33;4.60;99.90
18191;DHT22;47004;51.366;12.348;2023-12-20T03:17:35;4.60;99.90
18191;DHT22;47004;51.366;12.348;2023-12-20T03:19:37;4.60;99.90
18191;DHT22;47004;51.366;12.348;2023-12-20T03:21:39;4.60;99.90
18191;DHT22;47004;51.366;12.348;2023-12-20T03:23:41;4.60;99.90
18191;DHT22;47004;51.366;12.348;2023-12-20T03:25:43;4.60;99.90
18191;DHT22;47004;51.366;12.348;2023-12-20T03:27:46;4.60;99.90
18191;DHT22;47004;51.366;12.348;2023-12-20T03:29:48;4.60;99.90
18191;DHT22;47004;51.366;12.348;2023-12-20T03:31:50;4.60;99.90
18191;DHT22;47004;51.366;12.348;2023-12-20T03:33:51;4.60;99.90
18191;DHT22;47004;51.366;12.348;2023-12-20T03:35:54;4.60;99.90
18191;DHT22;47004;51.366;12.348;2023-12-20T03:37:56;4.60;99.90
18191;DHT22;47004;51.366;12.348;2023-12-20T03:40:00;4.70;99.90
18191;DHT22;47004;51.366;12.348;2023-12-20T03:42:03;4.60;99.90
18191;DHT22;47004;51.366;12.348;2023-12-20T03:44:06;4.70;99.90
18191;DHT22;47004;51.366;12.348;2023-12-20T03:46:08;4.70;99.90
18191;DHT22;47004;51.366;12.348;2023-12-20T03:48:09;4.60;99.90
18191;DHT22;47004;51.366;12.348;2023-12-20T03:50:11;4.70;99.90
18191;DHT22;47004;51.366;12.348;2023-12-20T03:52:12;4.70;99.90
18191;DHT22;47004;51.366;12.348;2023-12-20T03:54:14;4.70;99.90
18191;DHT22;47004;51.366;12.348;2023-12-20T03:56:15;4.70;99.90
18191;DHT22;47004;51.366;12.348;2023-12-20T03:58:17;4.70;99.90
18191;DHT22;47004;51.366;12.348;2023-12-20T04:00:20;4.70;99.90
18191;DHT22;47004;51.366;12.348;2023-12-20T04:02:22;4.70;99.90
18191;DHT22;47004;51.366;12.348;2023-12-20T04:04:23;4.70;99.90
18191;DHT22;47004;51.366;12.348;2023-12-20T04:06:25;4.70;99.90
18191;DHT22;47004;51.366;12.348;2023-12-20T04:08:27;4.70;99.90
18191;DHT22;47004;51.366;12.348;2023-12-20T04:10:28;4.70;99.90
18191;DHT22;47004;51.366;12.348;2023-12-20T04:12:30;4.80;99.90
18191;DHT22;47004;51.366;12.348;2023-12-20T04:14:32;4.70;99.90
18191;DHT22;47004;51.366;12.348;2023-12-20T04:16:35;4.70;99.90
18191;DHT22;47004;51.366;12.348;2023-12-20T04:18:37;4.70;99.90
18191;DHT22;47004;51.366;12.348;2023-12-20T04:20:39;4.70;99.90
18191;DHT22;47004;51.366;12.348;2023-12-20T04:22:41;4.70;99.90
18191;DHT22;47004;51.366;12.348;2023-12-20T04:24:43;4.70;99.90
18191;DHT22;47004;51.366;12.348;2023-12-20T04:26:45;4.70;99.90
18191;DHT22;47004;51.366;12.348;2023-12-20T04:28:47;4.70;99.90
18191;DHT22;47004;51.366;12.348;2023-12-20T04:30:48;4.80;99.90
18191;DHT22;47004;51.366;12.348;2023-12-20T04:32:51;4.80;99.90
18191;DHT22;47004;51.366;12.348;2023-12-20T04:34:53;4.70;99.90
18191;DHT22;47004;51.366;12.348;2023-12-20T04:36:55;4.80;99.90
18191;DHT22;47004;51.366;12.348;2023-12-20T04:38:57;4.80;99.90
18191;DHT22;47004;51.366;12.348;2023-12-20T04:40:58;4.80;99.90
18191;DHT22;47004;51.366;12.348;2023-12-20T04:43:00;4.80;99.90
18191;DHT22;47004;51.366;12.348;2023-12-20T04:45:02;4.70;99.90
18191;DHT22;47004;51.366;12.348;2023-12-20T04:47:04;4.70;99.90
18191;DHT22;47004;51.366;12.348;2023-12-20T04:49:07;4.70;99.90
18191;DHT22;47004;51.366;12.348;2023-12-20T04:51:09;4.80;99.90
18191;DHT22;47004;51.366;12.348;2023-12-20T04:53:10;4.80;99.90
18191;DHT22;47004;51.366;12.348;2023-12-20T04:55:12;4.80;99.90
18191;DHT22;47004;51.366;12.348;2023-12-20T04:57:14;4.80;99.90
18191;DHT22;47004;51.366;12.348;2023-12-20T04:59:16;4.80;99.90
18191;DHT22;47004;51.366;12.348;2023-12-20T05:01:18;4.80;99.90
18191;DHT22;47004;51.366;12.348;2023-12-20T05:03:19;4.80;99.90
18191;DHT22;47004;51.366;12.348;2023-12-20T05:05:22;4.70;99.90
18191;DHT22;47004;51.366;12.348;2023-12-20T05:07:24;4.80;99.90
18191;DHT22;47004;51.366;12.348;2023-12-20T05:09:25;4.80;99.90
18191;DHT22;47004;51.366;12.348;2023-12-20T05:11:27;4.80;99.90
18191;DHT22;47004;51.366;12.348;2023-12-20T05:13:28;4.80;99.90
18191;DHT22;47004;51.366;12.348;2023-12-20T05:15:30;4.80;99.90
18191;DHT22;47004;51.366;12.348;2023-12-20T05:17:32;4.90;99.90
18191;DHT22;47004;51.366;12.348;2023-12-20T05:19:32;4.90;99.90
18191;DHT22;47004;51.366;12.348;2023-12-20T05:21:37;4.90;99.90
18191;DHT22;47004;51.366;12.348;2023-12-20T05:23:39;4.90;99.90
18191;DHT22;47004;51.366;12.348;2023-12-20T05:25:39;4.90;99.90
18191;DHT22;47004;51.366;12.348;2023-12-20T05:27:41;4.80;99.90
18191;DHT22;47004;51.366;12.348;2023-12-20T05:29:43;4.80;99.90
18191;DHT22;47004;51.366;12.348;2023-12-20T05:31:45;4.80;99.90
18191;DHT22;47004;51.366;12.348;2023-12-20T05:33:47;4.90;99.90
18191;DHT22;47004;51.366;12.348;2023-12-20T05:35:49;4.90;99.90
18191;DHT22;47004;51.366;12.348;2023-12-20T05:37:52;4.90;99.90
18191;DHT22;47004;51.366;12.348;2023-12-20T05:39:54;4.80;99.90
18191;DHT22;47004;51.366;12.348;2023-12-20T05:41:56;4.80;99.90
18191;DHT22;47004;51.366;12.348;2023-12-20T05:43:58;4.80;99.90
18191;DHT22;47004;51.366;12.348;2023-12-20T05:46:03;4.80;99.90
18191;DHT22;47004;51.366;12.348;2023-12-20T05:48:05;4.90;99.90
18191;DHT22;47004;51.366;12.348;2023-12-20T05:50:07;4.80;99.90
18191;DHT22;47004;51.366;12.348;2023-12-20T05:52:09;4.80;99.90
18191;DHT22;47004;51.366;12.348;2023-12-20T05:54:12;4.70;99.90
18191;DHT22;47004;51.366;12.348;2023-12-20T05:56:14;4.80;99.90
18191;DHT22;47004;51.366;12.348;2023-12-20T05:58:15;4.80;99.90
18191;DHT22;47004;51.366;12.348;2023-12-20T06:00:18;4.80;99.90
18191;DHT22;47004;51.366;12.348;2023-12-20T06:02:22;4.80;99.90
18191;DHT22;47004;51.366;12.348;2023-12-20T06:04:24;4.80;99.90
18191;DHT22;47004;51.366;12.348;2023-12-20T06:06:26;4.80;99.90
18191;DHT22;47004;51.366;12.348;2023-12-20T06:08:28;4.80;99.90
18191;DHT22;47004;51.366;12.348;2023-12-20T06:10:30;4.80;99.90
18191;DHT22;47004;51.366;12.348;2023-12-20T06:12:32;4.80;99.90
18191;DHT22;47004;51.366;12.348;2023-12-20T06:14:36;4.70;99.90
18191;DHT22;47004;51.366;12.348;2023-12-20T06:16:38;4.70;99.90
18191;DHT22;47004;51.366;12.348;2023-12-20T06:18:40;4.70;99.90
18191;DHT22;47004;51.366;12.348;2023-12-20T06:20:42;4.70;99.90
18191;DHT22;47004;51.366;12.348;2023-12-20T06:22:43;4.70;99.90
18191;DHT22;47004;51.366;12.348;2023-12-20T06:24:45;4.70;99.90
18191;DHT22;47004;51.366;12.348;2023-12-20T06:26:48;4.70;99.90
18191;DHT22;47004;51.366;12.348;2023-12-20T06:28:50;4.60;99.90
18191;DHT22;47004;51.366;12.348;2023-12-20T06:30:52;4.60;99.90
18191;DHT22;47004;51.366;12.348;2023-12-20T06:32:55;4.60;99.90
18191;DHT22;47004;51.366;12.348;2023-12-20T06:34:58;4.60;99.90
18191;DHT22;47004;51.366;12.348;2023-12-20T06:37:00;4.50;99.90
18191;DHT22;47004;51.366;12.348;2023-12-20T06:39:01;4.50;99.90
18191;DHT22;47004;51.366;12.348;2023-12-20T06:41:05;4.50;99.90
18191;DHT22;47004;51.366;12.348;2023-12-20T06:43:09;4.40;99.90
18191;DHT22;47004;51.366;12.348;2023-12-20T06:45:10;4.40;99.90
18191;DHT22;47004;51.366;12.348;2023-12-20T06:47:14;4.40;99.90
18191;DHT22;47004;51.366;12.348;2023-12-20T06:49:16;4.40;99.90
18191;DHT22;47004;51.366;12.348;2023-12-20T06:51:17;4.40;99.90
18191;DHT22;47004;51.366;12.348;2023-12-20T06:53:20;4.40;99.90
18191;DHT22;47004;51.366;12.348;2023-12-20T06:55:22;4.30;99.90
18191;DHT22;47004;51.366;12.348;2023-12-20T06:57:23;4.40;99.90
18191;DHT22;47004;51.366;12.348;2023-12-20T06:59:28;4.40;99.90
18191;DHT22;47004;51.366;12.348;2023-12-20T07:01:30;4.40;99.90
18191;DHT22;47004;51.366;12.348;2023-12-20T07:03:31;4.40;99.90
18191;DHT22;47004;51.366;12.348;2023-12-20T07:05:33;4.30;99.90
18191;DHT22;47004;51.366;12.348;2023-12-20T07:07:35;4.30;99.90
18191;DHT22;47004;51.366;12.348;2023-12-20T07:09:36;4.30;99.90
18191;DHT22;47004;51.366;12.348;2023-12-20T07:11:39;4.20;99.90
18191;DHT22;47004;51.366;12.348;2023-12-20T07:13:41;4.20;99.90
18191;DHT22;47004;51.366;12.348;2023-12-20T07:15:44;4.20;99.90
18191;DHT22;47004;51.366;12.348;2023-12-20T07:17:46;4.20;99.90
18191;DHT22;47004;51.366;12.348;2023-12-20T07:19:48;4.20;99.90
18191;DHT22;47004;51.366;12.348;2023-12-20T07:21:50;4.20;99.90
18191;DHT22;47004;51.366;12.348;2023-12-20T07:23:51;4.10;99.90
18191;DHT22;47004;51.366;12.348;2023-12-20T07:25:53;4.00;99.90
18191;DHT22;47004;51.366;12.348;2023-12-20T07:27:55;4.20;99.90
18191;DHT22;47004;51.366;12.348;2023-12-20T07:29:57;4.20;99.90
18191;DHT22;47004;51.366;12.348;2023-12-20T07:32:01;4.20;99.90
18191;DHT22;47004;51.366;12.348;2023-12-20T07:34:03;4.10;99.90
18191;DHT22;47004;51.366;12.348;2023-12-20T07:36:04;4.20;99.90
18191;DHT22;47004;51.366;12.348;2023-12-20T07:38:06;4.10;99.90
18191;DHT22;47004;51.366;12.348;2023-12-20T07:40:10;4.10;99.90
18191;DHT22;47004;51.366;12.348;2023-12-20T07:42:12;4.10;99.90
18191;DHT22;47004;51.366;12.348;2023-12-20T07:44:14;4.10;99.90
18191;DHT22;47004;51.366;12.348;2023-12-20T07:46:16;4.10;99.90
18191;DHT22;47004;51.366;12.348;2023-12-20T07:48:20;4.10;99.90
18191;DHT22;47004;51.366;12.348;2023-12-20T07:50:22;4.10;99.90
18191;DHT22;47004;51.366;12.348;2023-12-20T07:52:25;4.10;99.90
18191;DHT22;47004;51.366;12.348;2023-12-20T07:54:28;4.10;99.90
18191;DHT22;47004;51.366;12.348;2023-12-20T07:56:29;4.10;99.90
18191;DHT22;47004;51.366;12.348;2023-12-20T07:58:31;4.10;99.90
18191;DHT22;47004;51.366;12.348;2023-12-20T08:00:33;4.20;99.90
18191;DHT22;47004;51.366;12.348;2023-12-20T08:02:35;4.10;99.90
18191;DHT22;47004;51.366;12.348;2023-12-20T08:04:38;4.10;99.90
18191;DHT22;47004;51.366;12.348;2023-12-20T08:06:41;4.20;99.90
18191;DHT22;47004;51.366;12.348;2023-12-20T08:08:43;4.20;99.90
18191;DHT22;47004;51.366;12.348;2023-12-20T08:10:44;4.20;99.90
18191;DHT22;47004;51.366;12.348;2023-12-20T08:12:46;4.20;99.90
18191;DHT22;47004;51.366;12.348;2023-12-20T08:14:48;4.10;99.90
18191;DHT22;47004;51.366;12.348;2023-12-20T08:16:50;4.10;99.90
18191;DHT22;47004;51.366;12.348;2023-12-20T08:18:52;4.10;99.90
18191;DHT22;47004;51.366;12.348;2023-12-20T08:20:55;4.20;99.90
18191;DHT22;47004;51.366;12.348;2023-12-20T08:22:56;4.20;99.90
18191;DHT22;47004;51.366;12.348;2023-12-20T08:24:58;4.20;99.90
18191;DHT22;47004;51.366;12.348;2023-12-20T08:27:00;4.30;99.90
18191;DHT22;47004;51.366;12.348;2023-12-20T08:29:02;4.30;99.90
18191;DHT22;47004;51.366;12.348;2023-12-20T08:31:04;4.30;99.90
18191;DHT22;47004;51.366;12.348;2023-12-20T08:33:06;4.30;99.90
18191;DHT22;47004;51.366;12.348;2023-12-20T08:35:11;4.30;99.90
18191;DHT22;47004;51.366;12.348;2023-12-20T08:37:14;4.60;99.90
18191;DHT22;47004;51.366;12.348;2023-12-20T08:39:16;4.70;99.90
18191;DHT22;47004;51.366;12.348;2023-12-20T08:41:18;4.80;99.90
18191;DHT22;47004;51.366;12.348;2023-12-20T08:43:21;4.50;99.90
18191;DHT22;47004;51.366;12.348;2023-12-20T08:45:23;4.40;99.90
18191;DHT22;47004;51.366;12.348;2023-12-20T08:47:25;4.40;99.90
18191;DHT22;47004;51.366;12.348;2023-12-20T08:49:27;4.40;99.90
18191;DHT22;47004;51.366;12.348;2023-12-20T08:51:29;4.40;99.90
18191;DHT22;47004;51.366;12.348;2023-12-20T08:53:33;4.40;99.90
18191;DHT22;47004;51.366;12.348;2023-12-20T08:55:35;4.40;99.90
18191;DHT22;47004;51.366;12.348;2023-12-20T08:57:36;4.50;99.90
18191;DHT22;47004;51.366;12.348;2023-12-20T08:59:38;4.40;99.90
18191;DHT22;47004;51.366;12.348;2023-12-20T09:01:40;4.40;99.90
18191;DHT22;47004;51.366;12.348;2023-12-20T09:03:41;4.40;99.90
18191;DHT22;47004;51.366;12.348;2023-12-20T09:05:43;4.40;99.90
18191;DHT22;47004;51.366;12.348;2023-12-20T09:07:44;4.40;99.90
18191;DHT22;47004;51.366;12.348;2023-12-20T09:09:48;4.40;99.90
18191;DHT22;47004;51.366;12.348;2023-12-20T09:11:50;4.40;99.90
18191;DHT22;47004;51.366;12.348;2023-12-20T09:13:53;4.40;99.90
18191;DHT22;47004;51.366;12.348;2023-12-20T09:15:55;4.40;99.90
18191;DHT22;47004;51.366;12.348;2023-12-20T09:17:57;4.40;99.90
18191;DHT22;47004;51.366;12.348;2023-12-20T09:19:59;4.50;99.90
18191;DHT22;47004;51.366;12.348;2023-12-20T09:22:01;4.50;99.90
18191;DHT22;47004;51.366;12.348;2023-12-20T09:24:03;4.50;99.90
18191;DHT22;47004;51.366;12.348;2023-12-20T09:26:07;4.50;99.90
18191;DHT22;47004;51.366;12.348;2023-12-20T09:28:09;4.60;99.90
18191;DHT22;47004;51.366;12.348;2023-12-20T09:30:12;4.60;99.90
18191;DHT22;47004;51.366;12.348;2023-12-20T09:32:14;4.60;99.90
18191;DHT22;47004;51.366;12.348;2023-12-20T09:34:16;4.60;99.90
18191;DHT22;47004;51.366;12.348;2023-12-20T09:36:17;4.60;99.90
18191;DHT22;47004;51.366;12.348;2023-12-20T09:38:19;4.60;99.90
18191;DHT22;47004;51.366;12.348;2023-12-20T09:40:20;4.70;99.90
18191;DHT22;47004;51.366;12.348;2023-12-20T09:42:39;4.60;99.90
18191;DHT22;47004;51.366;12.348;2023-12-20T09:44:45;4.70;99.90
18191;DHT22;47004;51.366;12.348;2023-12-20T09:46:49;4.80;99.90
18191;DHT22;47004;51.366;12.348;2023-12-20T09:48:55;4.70;99.90
18191;DHT22;47004;51.366;12.348;2023-12-20T09:50:57;4.80;99.90
18191;DHT22;47004;51.366;12.348;2023-12-20T09:53:01;4.80;99.90
18191;DHT22;47004;51.366;12.348;2023-12-20T09:55:04;4.90;99.90
18191;DHT22;47004;51.366;12.348;2023-12-20T09:57:10;4.90;99.90
18191;DHT22;47004;51.366;12.348;2023-12-20T09:59:13;4.90;99.90
18191;DHT22;47004;51.366;12.348;2023-12-20T10:01:18;5.00;99.90
18191;DHT22;47004;51.366;12.348;2023-12-20T10:03:24;5.00;99.90
18191;DHT22;47004;51.366;12.348;2023-12-20T10:05:28;5.10;99.90
18191;DHT22;47004;51.366;12.348;2023-12-20T10:07:29;5.20;99.90
18191;DHT22;47004;51.366;12.348;2023-12-20T10:09:31;5.20;99.90
18191;DHT22;47004;51.366;12.348;2023-12-20T10:11:35;5.30;99.90
18191;DHT22;47004;51.366;12.348;2023-12-20T10:13:39;5.30;99.90
18191;DHT22;47004;51.366;12.348;2023-12-20T10:15:43;5.30;99.90
18191;DHT22;47004;51.366;12.348;2023-12-20T10:17:45;5.40;99.90
18191;DHT22;47004;51.366;12.348;2023-12-20T10:19:49;5.50;99.90
18191;DHT22;47004;51.366;12.348;2023-12-20T10:21:51;5.50;99.90
18191;DHT22;47004;51.366;12.348;2023-12-20T10:23:54;5.50;99.90
18191;DHT22;47004;51.366;12.348;2023-12-20T10:25:58;5.40;99.90
18191;DHT22;47004;51.366;12.348;2023-12-20T10:28:11;5.40;99.90
18191;DHT22;47004;51.366;12.348;2023-12-20T10:30:13;5.40;99.90
18191;DHT22;47004;51.366;12.348;2023-12-20T10:32:24;5.40;99.90
18191;DHT22;47004;51.366;12.348;2023-12-20T10:34:26;5.50;99.90
18191;DHT22;47004;51.366;12.348;2023-12-20T10:36:29;5.50;99.90
18191;DHT22;47004;51.366;12.348;2023-12-20T10:38:32;5.60;99.90
18191;DHT22;47004;51.366;12.348;2023-12-20T10:40:35;5.60;99.90
18191;DHT22;47004;51.366;12.348;2023-12-20T10:42:39;5.60;99.90
18191;DHT22;47004;51.366;12.348;2023-12-20T10:44:42;5.70;99.90
18191;DHT22;47004;51.366;12.348;2023-12-20T10:46:44;5.80;99.90
18191;DHT22;47004;51.366;12.348;2023-12-20T10:48:53;5.80;99.90
18191;DHT22;47004;51.366;12.348;2023-12-20T10:50:55;5.80;99.90
18191;DHT22;47004;51.366;12.348;2023-12-20T10:52:58;5.90;99.90
18191;DHT22;47004;51.366;12.348;2023-12-20T10:55:00;5.90;99.90
18191;DHT22;47004;51.366;12.348;2023-12-20T10:57:05;5.90;99.90
18191;DHT22;47004;51.366;12.348;2023-12-20T10:59:08;5.90;99.90
18191;DHT22;47004;51.366;12.348;2023-12-20T11:01:13;6.00;99.90
18191;DHT22;47004;51.366;12.348;2023-12-20T11:03:18;6.00;99.90
18191;DHT22;47004;51.366;12.348;2023-12-20T11:05:32;5.90;99.90
18191;DHT22;47004;51.366;12.348;2023-12-20T11:07:38;6.00;99.90
18191;DHT22;47004;51.366;12.348;2023-12-20T11:09:47;6.10;99.90
18191;DHT22;47004;51.366;12.348;2023-12-20T11:12:04;6.10;99.90
18191;DHT22;47004;51.366;12.348;2023-12-20T11:14:14;6.10;99.90
18191;DHT22;47004;51.366;12.348;2023-12-20T11:16:16;6.10;99.90
18191;DHT22;47004;51.366;12.348;2023-12-20T11:18:18;6.40;99.90
18191;DHT22;47004;51.366;12.348;2023-12-20T11:20:21;6.20;99.90
18191;DHT22;47004;51.366;12.348;2023-12-20T11:22:26;6.20;99.90
18191;DHT22;47004;51.366;12.348;2023-12-20T11:24:28;6.20;99.90
18191;DHT22;47004;51.366;12.348;2023-12-20T11:26:34;6.10;99.90
18191;DHT22;47004;51.366;12.348;2023-12-20T11:28:36;6.20;99.90
18191;DHT22;47004;51.366;12.348;2023-12-20T11:30:41;6.20;99.90
18191;DHT22;47004;51.366;12.348;2023-12-20T11:32:46;6.20;99.90
18191;DHT22;47004;51.366;12.348;2023-12-20T11:34:48;6.30;99.90
18191;DHT22;47004;51.366;12.348;2023-12-20T11:36:57;6.30;99.90
18191;DHT22;47004;51.366;12.348;2023-12-20T11:39:00;6.20;99.90
18191;DHT22;47004;51.366;12.348;2023-12-20T11:41:06;6.20;99.90
18191;DHT22;47004;51.366;12.348;2023-12-20T11:43:08;6.10;99.90
18191;DHT22;47004;51.366;12.348;2023-12-20T11:45:11;6.20;99.90
18191;DHT22;47004;51.366;12.348;2023-12-20T11:47:15;6.20;99.90
18191;DHT22;47004;51.366;12.348;2023-12-20T11:49:23;6.20;99.90
18191;DHT22;47004;51.366;12.348;2023-12-20T11:51:25;6.20;99.90
18191;DHT22;47004;51.366;12.348;2023-12-20T11:53:27;6.20;99.90
18191;DHT22;47004;51.366;12.348;2023-12-20T11:55:31;6.10;99.90
18191;DHT22;47004;51.366;12.348;2023-12-20T11:57:34;6.20;99.90
18191;DHT22;47004;51.366;12.348;2023-12-20T11:59:38;6.20;99.90
18191;DHT22;47004;51.366;12.348;2023-12-20T12:01:40;6.20;99.90
18191;DHT22;47004;51.366;12.348;2023-12-20T12:03:42;6.20;99.90
18191;DHT22;47004;51.366;12.348;2023-12-20T12:05:47;6.20;99.90
18191;DHT22;47004;51.366;12.348;2023-12-20T12:07:50;6.30;99.90
18191;DHT22;47004;51.366;12.348;2023-12-20T12:09:52;6.20;99.90
18191;DHT22;47004;51.366;12.348;2023-12-20T12:11:54;6.40;99.90
18191;DHT22;47004;51.366;12.348;2023-12-20T12:13:57;6.40;99.90
18191;DHT22;47004;51.366;12.348;2023-12-20T12:15:59;6.50;99.90
18191;DHT22;47004;51.366;12.348;2023-12-20T12:18:01;6.50;99.90
18191;DHT22;47004;51.366;12.348;2023-12-20T12:20:04;6.50;99.90
18191;DHT22;47004;51.366;12.348;2023-12-20T12:22:06;6.50;99.90
18191;DHT22;47004;51.366;12.348;2023-12-20T12:24:11;6.50;99.90
18191;DHT22;47004;51.366;12.348;2023-12-20T12:26:13;6.60;99.90
18191;DHT22;47004;51.366;12.348;2023-12-20T12:28:16;6.60;99.90
18191;DHT22;47004;51.366;12.348;2023-12-20T12:30:18;6.60;99.90
18191;DHT22;47004;51.366;12.348;2023-12-20T12:32:20;6.70;99.90
18191;DHT22;47004;51.366;12.348;2023-12-20T12:34:23;6.70;99.90
18191;DHT22;47004;51.366;12.348;2023-12-20T12:36:25;6.70;99.90
18191;DHT22;47004;51.366;12.348;2023-12-20T12:38:27;6.80;99.90
18191;DHT22;47004;51.366;12.348;2023-12-20T12:40:29;6.90;99.90
18191;DHT22;47004;51.366;12.348;2023-12-20T12:42:31;6.90;99.90
18191;DHT22;47004;51.366;12.348;2023-12-20T12:44:35;6.90;99.90
18191;DHT22;47004;51.366;12.348;2023-12-20T12:46:37;7.30;99.90
18191;DHT22;47004;51.366;12.348;2023-12-20T12:48:38;6.80;99.90
18191;DHT22;47004;51.366;12.348;2023-12-20T12:50:40;6.80;99.90
18191;DHT22;47004;51.366;12.348;2023-12-20T12:52:42;6.90;99.90
18191;DHT22;47004;51.366;12.348;2023-12-20T12:54:42;6.80;99.90